createdAt,value
2023-05-01T00:04:58.443Z,98887.23
2023-05-01T00:08:00.764Z,98894.29
2023-05-01T00:11:10.075Z,98895.52
2023-05-01T00:14:12.680Z,98896.14
2023-05-01T00:17:14.919Z,98899.05
2023-05-01T00:20:17.354Z,98902.13
2023-05-01T00:23:19.497Z,98901.83
2023-05-01T00:26:22.210Z,98907.48
2023-05-01T00:29:24.775Z,98909.01
2023-05-01T00:32:27.028Z,98912.48
2023-05-01T00:35:31.365Z,98913.66
2023-05-01T00:38:33.646Z,98916.79
2023-05-01T00:41:36.865Z,98917.73
2023-05-01T00:44:39.909Z,98919.46
2023-05-01T00:47:42.338Z,98925.02
2023-05-01T00:50:46.399Z,98930.59
2023-05-01T00:53:48.689Z,98933.23
2023-05-01T00:56:53.451Z,98933.55
2023-05-01T00:59:55.955Z,98934.45
2023-05-01T01:02:58.452Z,98934.73
2023-05-01T01:06:10.002Z,98932.08
2023-05-01T01:09:34.973Z,98933.85
2023-05-01T01:13:02.766Z,98930.73
2023-05-01T01:16:16.652Z,98930.23
2023-05-01T01:19:22.763Z,98933.41
2023-05-01T01:22:28.022Z,98937.80
2023-05-01T01:26:08.354Z,98932.89
2023-05-01T01:29:33.805Z,98937.27
2023-05-01T01:32:57.490Z,98943.29
2023-05-01T01:36:07.751Z,98945.47
2023-05-01T01:39:28.824Z,98951.16
2023-05-01T01:42:50.875Z,98953.30
2023-05-01T01:46:06.405Z,98949.67
2023-05-01T01:49:16.188Z,98956.88
2023-05-01T01:52:20.812Z,98957.92
2023-05-01T01:55:28.025Z,98967.29
2023-05-01T01:58:32.494Z,98967.66
2023-05-01T02:05:21.424Z,98964.62
2023-05-01T02:08:25.662Z,98967.92
2023-05-01T02:11:30.240Z,98980.95
2023-05-01T02:14:33.777Z,98982.97
2023-05-01T02:17:39.975Z,98990.70
2023-05-01T02:20:44.261Z,98989.19
2023-05-01T02:23:46.865Z,98994.16
2023-05-01T02:26:55.467Z,98997.42
2023-05-01T02:29:57.945Z,98996.98
2023-05-01T02:33:00.620Z,98998.80
2023-05-01T02:36:04.333Z,98997.38
2023-05-01T02:39:07.562Z,99001.38
2023-05-01T02:42:11.837Z,99009.47
2023-05-01T02:45:20.285Z,99017.94
2023-05-01T02:48:27.221Z,99021.50
2023-05-01T02:51:33.568Z,99030.81
2023-05-01T02:54:36.017Z,99030.96
2023-05-01T02:57:38.498Z,99038.05
2023-05-01T03:00:40.798Z,99044.88
2023-05-01T03:03:42.926Z,99043.07
2023-05-01T03:06:45.332Z,99049.41
2023-05-01T03:09:48.467Z,99053.89
2023-05-01T03:12:50.651Z,99058.09
2023-05-01T03:15:53.493Z,99055.10
2023-05-01T03:18:56.378Z,99057.40
2023-05-01T03:22:00.299Z,99064.26
2023-05-01T03:25:04.238Z,99066.70
2023-05-01T03:28:09.363Z,99075.40
2023-05-01T03:31:13.706Z,99079.17
2023-05-01T03:34:17.398Z,99083.10
2023-05-01T03:37:19.787Z,99084.34
2023-05-01T03:40:22.258Z,99085.68
2023-05-01T03:43:50.834Z,99088.99
2023-05-01T03:47:12.391Z,99092.35
2023-05-01T03:50:16.304Z,99095.23
2023-05-01T03:53:19.079Z,99098.73
2023-05-01T03:56:21.358Z,99105.30
2023-05-01T03:59:26.590Z,99103.95
2023-05-01T04:05:01.052Z,99104.55
2023-05-01T04:08:09.248Z,99108.66
2023-05-01T04:11:11.757Z,99104.92
2023-05-01T04:14:13.960Z,99107.41
2023-05-01T04:17:16.690Z,99109.26
2023-05-01T04:20:19.759Z,99112.60
2023-05-01T04:23:23.134Z,99110.48
2023-05-01T04:26:27.169Z,99113.04
2023-05-01T04:29:29.336Z,99117.48
2023-05-01T04:32:31.977Z,99121.33
2023-05-01T04:35:35.185Z,99127.54
2023-05-01T04:38:38.512Z,99130.59
2023-05-01T04:41:40.792Z,99127.61
2023-05-01T04:44:43.072Z,99127.52
2023-05-01T04:47:45.168Z,99127.48
2023-05-01T04:50:47.507Z,99136.30
2023-05-01T04:53:49.736Z,99133.49
2023-05-01T04:56:56.043Z,99136.55
2023-05-01T04:59:59.587Z,99146.34
2023-05-01T05:03:02.080Z,99149.68
2023-05-01T05:06:04.560Z,99158.46
2023-05-01T05:09:06.783Z,99155.86
2023-05-01T05:12:09.618Z,99168.65
2023-05-01T05:15:12.550Z,99164.91
2023-05-01T05:18:14.988Z,99176.45
2023-05-01T05:21:17.459Z,99173.52
2023-05-01T05:24:23.281Z,99180.58
2023-05-01T05:27:25.545Z,99183.38
2023-05-01T05:30:28.316Z,99183.81
2023-05-01T05:33:31.634Z,99186.52
2023-05-01T05:36:33.928Z,99189.42
2023-05-01T05:39:35.863Z,99199.05
2023-05-01T05:42:37.934Z,99199.95
2023-05-01T05:45:42.980Z,99214.40
2023-05-01T05:48:45.657Z,99215.11
2023-05-01T05:51:47.935Z,99218.45
2023-05-01T05:54:52.024Z,99216.02
2023-05-01T05:57:54.210Z,99212.81
2023-05-01T06:05:01.721Z,99220.20
2023-05-01T06:08:04.457Z,99229.11
2023-05-01T06:11:07.838Z,99228.40
2023-05-01T06:14:11.620Z,99239.52
2023-05-01T06:17:14.450Z,99229.32
2023-05-01T06:20:16.845Z,99237.77
2023-05-01T06:23:20.073Z,99248.04
2023-05-01T06:26:42.497Z,99239.13
2023-05-01T06:29:44.478Z,99245.02
2023-05-01T06:32:47.116Z,99248.23
2023-05-01T06:35:49.299Z,99247.77
2023-05-01T06:38:51.482Z,99251.16
2023-05-01T06:41:53.607Z,99251.36
2023-05-01T06:45:06.714Z,99251.66
2023-05-01T06:51:50.151Z,99268.77
2023-05-01T06:54:52.746Z,99259.14
2023-05-01T06:57:55.080Z,99271.43
2023-05-01T07:00:57.463Z,99270.10
2023-05-01T07:03:59.712Z,99275.06
2023-05-01T07:07:03.367Z,99276.98
2023-05-01T07:10:06.445Z,99279.73
2023-05-01T07:13:10.089Z,99281.68
2023-05-01T07:16:12.383Z,99290.65
2023-05-01T07:19:15.276Z,99292.52
2023-05-01T07:22:17.403Z,99302.58
2023-05-01T07:25:20.482Z,99301.64
2023-05-01T07:28:23.478Z,99297.13
2023-05-01T07:31:25.559Z,99299.91
2023-05-01T07:34:27.824Z,99313.41
2023-05-01T07:37:30.108Z,99318.99
2023-05-01T07:40:35.654Z,99327.08
2023-05-01T07:43:37.707Z,99319.60
2023-05-01T07:46:39.883Z,99315.15
2023-05-01T07:49:42.127Z,99324.73
2023-05-01T07:52:45.909Z,99323.09
2023-05-01T07:55:48.959Z,99325.23
2023-05-01T07:58:51.319Z,99326.79
2023-05-01T08:01:53.387Z,99334.42
2023-05-01T08:04:55.756Z,99330.35
2023-05-01T08:11:37.398Z,99326.48
2023-05-01T08:14:39.563Z,99339.87
2023-05-01T08:17:41.576Z,99337.92
2023-05-01T08:20:43.600Z,99340.11
2023-05-01T08:23:45.812Z,99339.09
2023-05-01T08:26:49.184Z,99335.94
2023-05-01T08:29:51.604Z,99334.26
2023-05-01T08:32:53.603Z,99349.52
2023-05-01T08:35:55.659Z,99345.84
2023-05-01T08:38:59.374Z,99360.95
2023-05-01T08:42:02.926Z,99356.73
2023-05-01T08:45:07.984Z,99350.27
2023-05-01T08:48:11.911Z,99348.02
2023-05-01T08:54:57.049Z,99336.79
2023-05-01T08:58:00.361Z,99343.34
2023-05-01T09:01:03.537Z,99351.92
2023-05-01T09:04:07.737Z,99351.95
2023-05-01T09:07:10.648Z,99354.35
2023-05-01T09:10:19.330Z,99353.48
2023-05-01T09:13:21.611Z,99376.16
2023-05-01T09:16:24.864Z,99384.18
2023-05-01T09:19:27.725Z,99372.13
2023-05-01T09:22:31.988Z,99371.69
2023-05-01T09:25:34.059Z,99373.64
2023-05-01T09:28:44.273Z,99370.55
2023-05-01T09:31:46.688Z,99373.62
2023-05-01T09:34:50.424Z,99387.22
2023-05-01T09:37:52.705Z,99375.95
2023-05-01T09:41:03.595Z,99371.00
2023-05-01T09:44:06.177Z,99369.30
2023-05-01T09:47:08.557Z,99376.92
2023-05-01T09:50:12.822Z,99387.43
2023-05-01T09:53:15.416Z,99371.43
2023-05-01T09:56:19.580Z,99386.14
2023-05-01T09:59:22.033Z,99385.42
2023-05-01T10:05:00.701Z,99382.92
2023-05-01T10:08:05.109Z,99384.90
2023-05-01T10:11:08.087Z,99384.42
2023-05-01T10:14:12.036Z,99384.42
2023-05-01T10:17:20.282Z,99387.96
2023-05-01T10:20:22.726Z,99382.06
2023-05-01T10:23:26.194Z,99388.78
2023-05-01T10:26:28.979Z,99389.48
2023-05-01T10:29:32.327Z,99383.70
2023-05-01T10:32:37.936Z,99381.88
2023-05-01T10:35:42.856Z,99385.53
2023-05-01T10:38:48.626Z,99404.80
2023-05-01T10:42:04.781Z,99400.69
2023-05-01T10:45:30.169Z,99391.84
2023-05-01T10:48:56.148Z,99399.61
2023-05-01T10:51:58.589Z,99393.41
2023-05-01T10:55:34.596Z,99398.69
2023-05-01T10:58:39.954Z,99403.63
2023-05-01T11:01:48.979Z,99407.26
2023-05-01T11:04:52.924Z,99405.83
2023-05-01T11:08:33.076Z,99404.94
2023-05-01T11:11:35.374Z,99401.48
2023-05-01T11:14:57.913Z,99410.13
2023-05-01T11:18:02.830Z,99410.10
2023-05-01T11:21:05.274Z,99394.73
2023-05-01T11:24:08.477Z,99392.02
2023-05-01T11:27:14.249Z,99401.21
2023-05-01T11:30:18.182Z,99397.16
2023-05-01T11:33:26.378Z,99393.15
2023-05-01T11:36:29.984Z,99400.77
2023-05-01T11:39:32.690Z,99402.95
2023-05-01T11:42:35.112Z,99398.39
2023-05-01T11:45:38.158Z,99398.21
2023-05-01T11:48:40.839Z,99403.63
2023-05-01T11:51:43.289Z,99389.58
2023-05-01T11:54:49.267Z,99391.02
2023-05-01T11:57:54.694Z,99407.55
2023-05-01T12:00:56.749Z,99404.80
2023-05-01T12:03:59.256Z,99409.41
2023-05-01T12:07:02.421Z,99400.48
2023-05-01T12:10:05.304Z,99401.58
2023-05-01T12:13:09.351Z,99413.58
2023-05-01T12:16:11.804Z,99417.39
2023-05-01T12:19:17.696Z,99416.72
2023-05-01T12:22:20.324Z,99405.77
2023-05-01T12:25:23.273Z,99403.24
2023-05-01T12:28:27.871Z,99403.73
2023-05-01T12:31:30.956Z,99402.61
2023-05-01T12:34:34.379Z,99399.95
2023-05-01T12:37:36.930Z,99405.29
2023-05-01T12:40:41.351Z,99410.24
2023-05-01T12:43:44.758Z,99407.31
2023-05-01T12:46:59.353Z,99406.27
2023-05-01T12:50:03.672Z,99406.58
2023-05-01T12:53:07.453Z,99403.20
2023-05-01T12:56:09.495Z,99414.58
2023-05-01T12:59:25.100Z,99416.09
2023-05-01T13:02:33.839Z,99413.92
2023-05-01T13:05:36.274Z,99433.06
2023-05-01T13:08:42.751Z,99423.24
2023-05-01T13:12:01.071Z,99414.75
2023-05-01T13:15:03.546Z,99413.46
2023-05-01T13:18:06.357Z,99414.27
2023-05-01T13:21:10.880Z,99419.74
2023-05-01T13:24:14.054Z,99427.95
2023-05-01T13:27:21.978Z,99426.08
2023-05-01T13:30:34.289Z,99431.66
2023-05-01T13:33:37.293Z,99422.35
2023-05-01T13:36:40.602Z,99419.52
2023-05-01T13:39:43.895Z,99425.20
2023-05-01T13:42:46.687Z,99429.94
2023-05-01T13:45:48.769Z,99433.16
2023-05-01T13:48:51.114Z,99437.70
2023-05-01T13:51:54.045Z,99443.30
2023-05-01T13:54:57.097Z,99438.64
2023-05-01T13:58:01.628Z,99433.70
2023-05-01T14:05:29.720Z,99436.77
2023-05-01T14:08:32.125Z,99438.98
2023-05-01T14:11:34.296Z,99438.45
2023-05-01T14:14:37.461Z,99436.41
2023-05-01T14:17:39.786Z,99437.08
2023-05-01T14:20:46.404Z,99440.41
2023-05-01T14:23:48.335Z,99445.59
2023-05-01T14:26:50.559Z,99449.52
2023-05-01T14:29:54.602Z,99448.61
2023-05-01T14:32:56.914Z,99449.20
2023-05-01T14:35:59.008Z,99455.48
2023-05-01T14:39:03.640Z,99453.58
2023-05-01T14:42:06.030Z,99457.02
2023-05-01T14:45:14.993Z,99460.31
2023-05-01T14:48:24.987Z,99461.51
2023-05-01T14:51:28.194Z,99463.71
2023-05-01T14:54:45.930Z,99459.40
2023-05-01T14:57:47.985Z,99461.98
2023-05-01T15:00:49.856Z,99468.48
2023-05-01T15:03:52.833Z,99472.04
2023-05-01T15:06:55.046Z,99472.84
2023-05-01T15:09:57.190Z,99473.75
2023-05-01T15:12:59.162Z,99477.66
2023-05-01T15:16:01.099Z,99476.33
2023-05-01T15:19:03.393Z,99478.02
2023-05-01T15:22:05.411Z,99478.39
2023-05-01T15:25:10.306Z,99480.63
2023-05-01T15:28:13.725Z,99482.46
2023-05-01T15:31:15.781Z,99487.42
2023-05-01T15:34:17.734Z,99490.51
2023-05-01T15:37:19.701Z,99492.77
2023-05-01T15:40:22.122Z,99494.04
2023-05-01T15:43:24.261Z,99497.70
2023-05-01T15:46:26.886Z,99503.31
2023-05-01T15:49:28.835Z,99500.67
2023-05-01T15:52:30.793Z,99503.58
2023-05-01T15:55:33.747Z,99510.73
2023-05-01T15:58:35.809Z,99513.69
2023-05-01T16:01:38.464Z,99514.09
2023-05-01T16:04:47.572Z,99519.53
2023-05-01T16:07:54.688Z,99525.13
2023-05-01T16:10:58.020Z,99531.02
2023-05-01T16:14:00.918Z,99533.99
2023-05-01T16:17:05.709Z,99536.14
2023-05-01T16:20:12.714Z,99543.79
2023-05-01T16:23:15.083Z,99548.43
2023-05-01T16:26:27.951Z,99557.20
2023-05-01T16:29:34.687Z,99560.58
2023-05-01T16:32:38.952Z,99563.13
2023-05-01T16:35:40.879Z,99568.80
2023-05-01T16:38:44.144Z,99569.30
2023-05-01T16:41:49.062Z,99566.85
2023-05-01T16:44:51.193Z,99574.36
2023-05-01T16:47:54.845Z,99580.38
2023-05-01T16:50:56.746Z,99589.13
2023-05-01T16:53:58.943Z,99594.55
2023-05-01T16:57:02.976Z,99596.30
2023-05-01T17:00:06.506Z,99597.51
2023-05-01T17:03:08.833Z,99599.02
2023-05-01T17:06:13.384Z,99608.02
2023-05-01T17:09:15.699Z,99609.52
2023-05-01T17:12:29.035Z,99616.84
2023-05-01T17:15:31.119Z,99618.43
2023-05-01T17:18:34.566Z,99629.94
2023-05-01T17:21:36.732Z,99631.16
2023-05-01T17:24:40.987Z,99633.39
2023-05-01T17:27:44.181Z,99638.09
2023-05-01T17:30:46.121Z,99639.15
2023-05-01T17:33:48.192Z,99644.96
2023-05-01T17:36:50.846Z,99650.31
2023-05-01T17:39:53.377Z,99653.27
2023-05-01T17:42:55.660Z,99657.61
2023-05-01T17:45:57.857Z,99665.69
2023-05-01T17:49:01.064Z,99669.95
2023-05-01T17:52:03.920Z,99674.02
2023-05-01T17:55:07.254Z,99678.48
2023-05-01T17:58:09.689Z,99682.27
2023-05-01T18:05:20.291Z,99693.33
2023-05-01T18:08:22.970Z,99693.61
2023-05-01T18:11:25.740Z,99696.00
2023-05-01T18:14:28.255Z,99694.52
2023-05-01T18:17:30.411Z,99704.81
2023-05-01T18:20:32.463Z,99707.20
2023-05-01T18:23:36.073Z,99712.81
2023-05-01T18:26:38.472Z,99714.80
2023-05-01T18:29:40.811Z,99721.65
2023-05-01T18:32:48.385Z,99722.64
2023-05-01T18:49:21.684Z,99737.33
2023-05-01T18:52:23.971Z,99742.94
2023-05-01T18:55:27.024Z,99749.59
2023-05-01T18:58:29.343Z,99751.05
2023-05-01T19:01:31.918Z,99755.14
2023-05-01T19:04:49.445Z,99752.09
2023-05-01T19:08:02.048Z,99753.84
2023-05-01T19:11:05.155Z,99757.10
2023-05-01T19:14:07.435Z,99763.86
2023-05-01T19:17:10.546Z,99766.61
2023-05-01T19:20:12.581Z,99766.16
2023-05-01T19:23:14.958Z,99766.80
2023-05-01T19:26:17.298Z,99768.46
2023-05-01T19:29:19.583Z,99771.73
2023-05-01T19:32:23.375Z,99776.51
2023-05-01T19:35:25.598Z,99777.09
2023-05-01T19:38:28.364Z,99776.02
2023-05-01T19:41:30.755Z,99778.47
2023-05-01T19:44:32.814Z,99782.02
2023-05-01T19:47:35.007Z,99786.83
2023-05-01T19:50:37.070Z,99784.20
2023-05-01T19:53:39.738Z,99784.70
2023-05-01T19:56:41.907Z,99787.45
2023-05-01T19:59:44.875Z,99793.29
2023-05-01T20:02:48.087Z,99794.81
2023-05-01T20:05:50.478Z,99797.15
2023-05-01T20:08:52.536Z,99799.47
2023-05-01T20:11:54.864Z,99801.29
2023-05-01T20:14:57.419Z,99801.06
2023-05-01T20:18:00.569Z,99800.68
2023-05-01T20:21:03.393Z,99804.36
2023-05-01T20:24:06.039Z,99807.21
2023-05-01T20:27:08.579Z,99807.94
2023-05-01T20:30:11.679Z,99808.47
2023-05-01T20:33:14.836Z,99812.86
2023-05-01T20:36:17.761Z,99815.60
2023-05-01T20:39:19.748Z,99820.84
2023-05-01T20:42:22.370Z,99820.98
2023-05-01T20:45:24.420Z,99822.34
2023-05-01T20:48:27.223Z,99820.49
2023-05-01T20:51:29.377Z,99823.98
2023-05-01T20:54:33.286Z,99821.67
2023-05-01T20:57:36.819Z,99820.66
2023-05-01T21:00:39.068Z,99829.20
2023-05-01T21:12:41.089Z,99836.21
2023-05-01T21:15:43.198Z,99838.46
2023-05-01T21:18:45.885Z,99841.98
2023-05-01T21:21:49.488Z,99849.73
2023-05-01T21:24:56.968Z,99853.57
2023-05-01T21:28:05.324Z,99857.67
2023-05-01T21:31:07.958Z,99857.48
2023-05-01T21:34:10.023Z,99859.20
2023-05-01T21:37:14.220Z,99862.59
2023-05-01T21:40:16.390Z,99863.90
2023-05-01T21:43:19.867Z,99864.56
2023-05-01T21:46:22.376Z,99866.41
2023-05-01T21:49:27.273Z,99868.91
2023-05-01T21:52:29.757Z,99872.10
2023-05-01T21:55:32.298Z,99874.77
2023-05-01T21:58:34.462Z,99880.70
2023-05-01T22:05:22.952Z,99892.79
2023-05-01T22:08:25.776Z,99898.22
2023-05-01T22:11:28.480Z,99899.32
2023-05-01T22:14:40.274Z,99899.20
2023-05-01T22:17:49.310Z,99903.08
2023-05-01T22:20:51.645Z,99906.39
2023-05-01T22:23:55.011Z,99908.95
2023-05-01T22:26:57.482Z,99908.90
2023-05-01T22:29:59.899Z,99909.94
2023-05-01T22:33:02.197Z,99911.73
2023-05-01T22:36:07.450Z,99918.86
2023-05-01T22:39:10.268Z,99914.28
2023-05-01T22:42:12.445Z,99918.73
2023-05-01T22:45:14.670Z,99920.45
2023-05-01T22:48:16.817Z,99921.16
2023-05-01T22:51:19.121Z,99919.35
2023-05-01T22:54:21.734Z,99918.35
2023-05-01T22:57:24.397Z,99918.66
2023-05-01T23:00:27.096Z,99922.34
2023-05-01T23:03:32.765Z,99919.31
2023-05-01T23:06:35.047Z,99920.27
2023-05-01T23:09:37.407Z,99922.90
2023-05-01T23:12:43.048Z,99927.16
2023-05-01T23:15:46.863Z,99930.31
2023-05-01T23:18:48.929Z,99929.08
2023-05-01T23:22:09.152Z,99928.83
2023-05-01T23:25:12.912Z,99928.11
2023-05-01T23:28:21.844Z,99928.73
2023-05-01T23:31:25.634Z,99923.27
2023-05-01T23:34:29.449Z,99922.73
2023-05-01T23:37:31.669Z,99923.45
2023-05-01T23:40:36.784Z,99925.55
2023-05-01T23:43:39.553Z,99927.55
2023-05-01T23:46:42.099Z,99928.56
2023-05-01T23:49:44.505Z,99928.69
2023-05-01T23:52:46.919Z,99931.27
2023-05-01T23:55:49.318Z,99939.82
2023-05-01T23:58:51.650Z,99941.65
